Time;durP1;ratioP1;P1;durP2;ratioP2;P2;SDS_P1;SDS_P2;PMS_P1;PMS_P2;Temp;Humidity;BMP_temperature;BMP_pressure;BME280_temperature;BME280_humidity;BME280_pressure;Samples;Min_cycle;Max_cycle;Signal;HPM_P1;HPM_P2
2022/08/10 00:00:21;;;;;;;1.33;1.23;;;;;;;25.67;36.31;99497.25;5007945;28;20026;-83
2022/08/10 00:02:51;;;;;;;1.42;1.25;;;;;;;25.77;36.71;99527.97;5008470;28;20524;-83
2022/08/10 00:05:17;;;;;;;1.67;1.40;;;;;;;25.97;36.55;99537.16;5007929;28;20030;-82
2022/08/10 00:07:43;;;;;;;2.05;0.77;;;;;;;25.81;36.31;99540.25;5008265;28;20034;-83
2022/08/10 00:10:12;;;;;;;0.85;0.75;;;;;;;26.04;36.05;99519.47;5007841;28;20483;-82
2022/08/10 00:12:37;;;;;;;3.60;1.20;;;;;;;25.94;36.28;99536.53;5007823;28;20114;-83
2022/08/10 00:15:05;;;;;;;2.63;1.17;;;;;;;25.97;36.20;99545.25;5008005;28;20034;-82
2022/08/10 00:17:31;;;;;;;4.60;1.92;;;;;;;25.92;36.38;99518.59;5005890;28;20503;-83
2022/08/10 00:19:56;;;;;;;2.78;1.67;;;;;;;26.27;35.97;99530.22;5007523;28;20069;-83
2022/08/10 00:22:22;;;;;;;2.35;1.90;;;;;;;26.25;36.16;99543.00;5007721;28;20030;-83
2022/08/10 00:24:47;;;;;;;2.25;2.05;;;;;;;26.24;35.77;99536.75;5006210;28;20068;-83
2022/08/10 00:27:13;;;;;;;1.98;1.40;;;;;;;26.12;35.47;99521.56;5007197;28;20034;-83
2022/08/10 00:29:38;;;;;;;1.48;1.17;;;;;;;25.94;35.70;99496.88;5022396;28;20088;-82
2022/08/10 00:32:04;;;;;;;1.48;1.38;;;;;;;26.03;36.43;99542.06;5007337;28;20036;-83
2022/08/10 00:34:31;;;;;;;1.83;1.73;;;;;;;26.03;36.19;99538.53;4996140;28;20034;-83
2022/08/10 00:36:58;;;;;;;1.23;1.05;;;;;;;25.67;36.45;99511.66;4986412;28;20041;-84
2022/08/10 00:39:24;;;;;;;0.75;0.75;;;;;;;25.72;36.90;99524.78;4988447;28;20026;-84
2022/08/10 00:41:50;;;;;;;2.22;1.92;;;;;;;25.82;36.62;99533.84;4987786;28;20042;-83
2022/08/10 00:44:15;;;;;;;2.13;1.23;;;;;;;25.98;36.75;99543.44;4986193;28;20058;-84
2022/08/10 00:46:41;;;;;;;5.35;2.15;;;;;;;25.65;37.05;99529.78;4986968;28;20405;-84
2022/08/10 00:49:07;;;;;;;3.95;1.83;;;;;;;25.72;37.13;99538.28;4987198;28;20555;-85
2022/08/10 00:51:33;;;;;;;0.98;0.82;;;;;;;25.59;37.45;99529.44;4987324;28;20524;-84
2022/08/10 00:53:59;;;;;;;2.50;1.73;;;;;;;25.34;38.20;99523.31;4987147;28;20050;-83
2022/08/10 00:56:24;;;;;;;2.45;1.80;;;;;;;25.53;38.20;99525.38;4987090;28;20035;-83
2022/08/10 00:58:50;;;;;;;3.05;2.40;;;;;;;25.34;38.31;99494.47;4987727;28;20034;-83
2022/08/10 01:01:15;;;;;;;3.45;1.48;;;;;;;25.33;38.53;99500.84;4987251;28;20512;-85
2022/08/10 01:03:41;;;;;;;3.13;2.50;;;;;;;24.97;39.18;99499.19;4987176;28;20794;-84
2022/08/10 01:06:28;;;;;;;1.70;1.60;;;;;;;25.25;39.07;99537.50;4987338;28;20034;-84
2022/08/10 01:09:10;;;;;;;1.80;1.52;;;;;;;25.22;38.85;99502.66;4987382;28;20742;-84
2022/08/10 01:11:44;;;;;;;2.42;1.95;;;;;;;25.43;38.35;99506.38;4987518;28;20117;-84
2022/08/10 01:14:20;;;;;;;2.05;1.25;;;;;;;25.56;38.38;99535.94;4987506;28;20030;-83
2022/08/10 01:16:56;;;;;;;1.83;1.45;;;;;;;25.18;38.68;99513.69;4985978;28;20046;-83
2022/08/10 01:19:42;;;;;;;1.35;1.02;;;;;;;25.24;38.90;99535.75;4987428;28;20042;-83
2022/08/10 01:22:32;;;;;;;1.50;1.40;;;;;;;25.47;38.40;99531.28;4986792;28;20030;-83
2022/08/10 01:25:00;;;;;;;1.30;1.20;;;;;;;25.36;38.73;99533.00;4987539;28;20437;-83
2022/08/10 01:27:38;;;;;;;12.15;1.85;;;;;;;25.20;38.63;99519.81;4986796;28;20030;-82
2022/08/10 01:30:07;;;;;;;1.88;1.27;;;;;;;24.76;38.79;99491.78;4987455;28;20093;-83
2022/08/10 01:32:42;;;;;;;1.58;0.90;;;;;;;25.01;38.74;99527.66;4986845;28;20571;-83
2022/08/10 01:35:22;;;;;;;7.47;3.13;;;;;;;24.94;38.55;99521.84;5001532;28;20034;-84
2022/08/10 01:38:02;;;;;;;1.27;1.10;;;;;;;25.09;38.31;99510.88;5007039;28;20496;-82
2022/08/10 01:40:33;;;;;;;2.10;1.58;;;;;;;25.05;38.57;99509.38;5006626;28;20034;-81
2022/08/10 01:43:03;;;;;;;1.30;1.20;;;;;;;25.01;38.08;99469.16;5006764;28;20038;-81
2022/08/10 01:45:30;;;;;;;6.45;1.30;;;;;;;25.21;38.11;99501.81;5006499;28;20137;-81
2022/08/10 01:50:48;;;;;;;1.17;0.70;;;;;;;24.89;38.22;99483.59;5006156;28;20514;-81
2022/08/10 01:53:25;;;;;;;2.90;1.67;;;;;;;25.17;38.06;99509.25;5005183;28;20069;-83
2022/08/10 01:55:53;;;;;;;2.53;1.15;;;;;;;25.06;38.54;99473.31;5005052;28;20631;-83
2022/08/10 01:58:21;;;;;;;4.20;1.58;;;;;;;25.22;37.64;99481.06;5006192;28;20045;-82
2022/08/10 02:00:50;;;;;;;1.30;0.90;;;;;;;25.05;38.08;99475.16;5006655;28;20022;-82
2022/08/10 02:03:18;;;;;;;0.95;0.85;;;;;;;24.86;38.70;99470.34;5006417;28;20416;-83
2022/08/10 02:05:48;;;;;;;1.70;1.13;;;;;;;25.04;38.21;99486.94;5005978;28;20822;-83
2022/08/10 02:08:17;;;;;;;1.17;1.05;;;;;;;25.17;37.83;99497.63;5009625;28;20076;-81
2022/08/10 02:10:45;;;;;;;0.75;0.75;;;;;;;25.50;37.66;99513.00;5010264;28;20037;-82
2022/08/10 02:13:15;;;;;;;1.50;1.40;;;;;;;25.28;37.42;99446.31;5010485;28;20030;-82
2022/08/10 02:15:42;;;;;;;4.57;1.30;;;;;;;25.63;37.64;99482.31;5010268;28;20037;-82
2022/08/10 02:18:11;;;;;;;1.60;1.40;;;;;;;25.74;37.52;99501.19;5009741;28;20070;-83
2022/08/10 02:20:43;;;;;;;2.00;1.00;;;;;;;25.65;37.46;99470.38;5009049;28;20026;-81
2022/08/10 02:23:14;;;;;;;2.70;1.00;;;;;;;25.94;37.49;99493.31;5009824;28;20095;-83
2022/08/10 02:25:42;;;;;;;1.15;1.05;;;;;;;25.51;38.23;99470.66;5009591;28;20041;-82
2022/08/10 02:28:08;;;;;;;2.75;1.63;;;;;;;25.65;38.26;99501.94;5009546;28;20030;-84
2022/08/10 02:30:36;;;;;;;2.88;1.70;;;;;;;25.51;38.51;99485.00;5009775;28;20091;-83
2022/08/10 02:33:03;;;;;;;8.85;2.70;;;;;;;25.27;39.21;99479.72;5010136;28;20038;-84
2022/08/10 02:35:30;;;;;;;1.30;1.13;;;;;;;25.23;39.60;99529.50;5009373;28;20505;-84
2022/08/10 02:38:01;;;;;;;1.88;1.38;;;;;;;24.95;39.97;99476.88;5009653;28;20092;-83
2022/08/10 02:40:31;;;;;;;1.05;0.95;;;;;;;24.99;40.29;99500.78;5009793;28;20033;-83
2022/08/10 02:43:27;;;;;;;1.13;1.05;;;;;;;25.02;40.46;99491.56;5009411;28;20121;-83
2022/08/10 02:46:07;;;;;;;3.70;1.48;;;;;;;24.95;40.36;99522.72;5010644;28;20049;-83
2022/08/10 02:48:42;;;;;;;1.27;1.15;;;;;;;24.91;40.72;99523.94;5009542;28;20037;-83
2022/08/10 02:51:17;;;;;;;2.13;1.33;;;;;;;24.61;40.41;99493.81;5009428;28;20123;-84
2022/08/10 02:53:48;;;;;;;;;;;;;;;24.59;41.38;99541.63;5008204;28;20034;-83
2022/08/10 02:56:33;;;;;;;5.20;2.08;;;;;;;24.43;41.38;99500.59;5008638;28;19910;-83
2022/08/10 02:59:08;;;;;;;0.57;0.57;;;;;;;24.27;41.60;99520.59;5001144;28;20073;-83
2022/08/10 03:01:40;;;;;;;1.63;1.52;;;;;;;24.49;41.69;99536.00;5001928;28;20107;-82
2022/08/10 03:04:10;;;;;;;2.63;2.10;;;;;;;24.24;42.13;99509.22;5009262;28;20038;-83
2022/08/10 03:06:40;;;;;;;1.98;1.77;;;;;;;24.38;42.14;99545.91;5008622;28;20021;-83
2022/08/10 03:09:08;;;;;;;6.28;2.30;;;;;;;24.12;41.84;99522.59;5009207;28;20037;-83
2022/08/10 03:11:36;;;;;;;2.17;1.95;;;;;;;23.84;42.24;99542.63;5008754;28;20037;-83
2022/08/10 03:14:03;;;;;;;1.38;1.27;;;;;;;23.73;42.73;99566.75;5002935;28;20092;-82
2022/08/10 03:16:31;;;;;;;3.15;2.00;;;;;;;23.61;43.32;99549.63;5000255;28;20044;-82
2022/08/10 03:19:01;;;;;;;1.60;1.00;;;;;;;23.63;43.53;99563.84;5004782;28;20467;-82
2022/08/10 03:21:28;;;;;;;0.50;0.50;;;;;;;23.66;43.33;99538.53;4988674;28;20034;-82
2022/08/10 03:23:57;;;;;;;2.13;1.92;;;;;;;23.60;43.21;99554.16;4989504;28;20034;-82
2022/08/10 03:26:24;;;;;;;1.48;1.30;;;;;;;23.56;43.44;99549.97;4988941;28;20034;-83
2022/08/10 03:28:51;;;;;;;2.47;2.28;;;;;;;23.53;43.19;99536.72;4989272;28;20054;-81
2022/08/10 03:31:17;;;;;;;0.85;0.85;;;;;;;23.56;43.51;99546.44;4988721;28;20084;-83
2022/08/10 03:33:44;;;;;;;0.60;0.60;;;;;;;23.35;43.95;99541.56;4988622;28;20093;-84
2022/08/10 03:36:11;;;;;;;0.77;0.77;;;;;;;23.31;44.11;99548.16;4987113;28;20045;-81
2022/08/10 03:38:37;;;;;;;17.80;2.35;;;;;;;23.39;44.67;99563.78;4997252;28;20038;-82
2022/08/10 03:41:05;;;;;;;2.17;1.08;;;;;;;23.54;44.09;99572.56;5008009;28;20036;-84
2022/08/10 03:43:32;;;;;;;4.22;1.27;;;;;;;23.36;44.15;99555.91;5008551;28;20034;-86
2022/08/10 03:46:02;;;;;;;2.30;2.10;;;;;;;23.45;43.99;99567.84;5007643;28;20046;-86
2022/08/10 03:48:29;;;;;;;3.38;1.25;;;;;;;23.35;43.60;99551.50;4999857;28;20508;-85
2022/08/10 03:50:57;;;;;;;0.20;0.20;;;;;;;23.22;44.29;99528.13;4988459;28;20041;-86
2022/08/10 03:53:24;;;;;;;0.80;0.80;;;;;;;23.58;43.85;99566.00;4987804;28;20081;-84
2022/08/10 03:55:50;;;;;;;9.32;0.63;;;;;;;23.70;43.97;99578.59;4988536;28;20113;-86
2022/08/10 03:58:16;;;;;;;1.55;1.27;;;;;;;23.69;43.82;99562.56;4988069;28;20049;-84
2022/08/10 04:00:43;;;;;;;0.93;0.88;;;;;;;23.86;43.75;99573.00;4988160;28;20501;-86
2022/08/10 04:03:10;;;;;;;0.95;0.88;;;;;;;23.99;43.03;99574.78;4987157;28;20026;-84
2022/08/10 04:05:36;;;;;;;0.77;0.77;;;;;;;23.81;43.16;99547.34;4987942;28;20026;-85
2022/08/10 04:08:02;;;;;;;1.67;0.65;;;;;;;23.81;43.67;99545.50;4987350;28;20497;-83
2022/08/10 04:10:28;;;;;;;2.30;1.45;;;;;;;24.08;43.73;99579.50;4988134;28;20042;-84
2022/08/10 04:12:54;;;;;;;1.27;1.13;;;;;;;23.96;44.08;99562.44;4988031;28;20426;-87
2022/08/10 04:15:20;;;;;;;0.60;0.60;;;;;;;24.21;44.02;99564.19;4987260;28;20049;-87
2022/08/10 04:17:45;;;;;;;2.33;1.88;;;;;;;24.10;44.09;99556.88;4987911;28;20117;-85
2022/08/10 04:20:52;;;;;;;1.73;1.50;;;;;;;24.36;44.30;99599.03;4986736;28;20030;-84
2022/08/10 04:23:24;;;;;;;2.42;0.77;;;;;;;24.43;44.66;99584.16;4978699;28;20216;-82
2022/08/10 04:25:51;;;;;;;0.82;0.80;;;;;;;24.46;45.09;99579.38;5005091;28;20605;-82
2022/08/10 04:28:18;;;;;;;1.17;0.98;;;;;;;24.60;45.04;99594.56;4988111;28;20034;-81
2022/08/10 04:30:46;;;;;;;1.95;1.85;;;;;;;24.40;44.67;99554.72;4995743;28;20030;-82
2022/08/10 04:33:14;;;;;;;0.55;0.47;;;;;;;24.63;44.12;99563.81;4997168;28;20041;-81
2022/08/10 04:35:41;;;;;;;0.70;0.70;;;;;;;24.66;43.59;99563.56;4986440;28;20181;-83
2022/08/10 04:38:09;;;;;;;5.70;1.15;;;;;;;24.69;43.57;99562.50;5001108;28;20034;-83
2022/08/10 04:40:35;;;;;;;2.85;2.22;;;;;;;24.89;43.64;99572.63;4989499;28;20862;-83
2022/08/10 04:43:03;;;;;;;4.85;2.85;;;;;;;24.86;43.99;99577.38;4994121;28;20032;-82
2022/08/10 04:45:29;;;;;;;1.98;1.33;;;;;;;24.98;43.54;99574.59;5007205;28;20073;-84
2022/08/10 04:47:55;;;;;;;0.60;0.60;;;;;;;25.09;43.33;99572.94;4990628;28;20155;-82
2022/08/10 04:50:21;;;;;;;2.22;1.58;;;;;;;24.97;43.91;99539.66;5007012;28;20514;-82
2022/08/10 04:52:46;;;;;;;1.27;1.17;;;;;;;25.25;42.87;99543.75;5005730;28;20042;-81
2022/08/10 04:55:11;;;;;;;1.38;1.27;;;;;;;25.60;42.94;99594.13;5007470;28;20025;-81
2022/08/10 04:57:37;;;;;;;2.95;1.23;;;;;;;25.59;42.49;99554.59;4995611;28;20125;-82
2022/08/10 05:00:04;;;;;;;1.63;0.77;;;;;;;25.95;42.30;99560.75;5002625;28;20552;-81
2022/08/10 05:02:29;;;;;;;3.30;3.05;;;;;;;26.08;41.86;99557.91;5006884;28;20038;-81
2022/08/10 05:04:55;;;;;;;1.38;1.13;;;;;;;26.27;40.39;99571.66;5006631;28;20096;-82
2022/08/10 05:07:20;;;;;;;11.50;1.92;;;;;;;26.57;40.75;99578.19;5005759;28;20049;-81
2022/08/10 05:09:47;;;;;;;2.58;1.70;;;;;;;26.79;39.92;99562.88;5000779;28;20049;-81
2022/08/10 05:12:13;;;;;;;4.35;1.13;;;;;;;26.76;40.27;99547.75;5005270;28;20474;-82
2022/08/10 05:14:38;;;;;;;0.77;0.75;;;;;;;26.83;40.05;99555.34;5006156;28;20136;-84
2022/08/10 05:17:04;;;;;;;4.80;3.03;;;;;;;26.90;40.62;99570.94;5006776;28;20034;-80
2022/08/10 05:19:29;;;;;;;1.63;0.88;;;;;;;26.72;39.91;99529.22;5006392;28;20097;-81
2022/08/10 05:21:55;;;;;;;1.20;0.90;;;;;;;26.97;40.19;99560.44;5006855;28;20519;-80
2022/08/10 05:24:20;;;;;;;1.05;0.98;;;;;;;27.10;39.88;99552.97;5007055;28;20179;-81
2022/08/10 05:26:45;;;;;;;3.67;1.73;;;;;;;27.21;39.77;99533.09;5005893;28;20099;-80
2022/08/10 05:29:11;;;;;;;2.13;1.88;;;;;;;27.61;38.32;99558.56;5022226;28;20061;-80
2022/08/10 05:31:36;;;;;;;0.82;0.82;;;;;;;27.91;37.82;99571.22;5007807;28;20550;-80
2022/08/10 05:34:02;;;;;;;3.78;1.63;;;;;;;28.12;38.29;99551.34;5006521;28;20037;-80
2022/08/10 05:36:28;;;;;;;0.75;0.75;;;;;;;28.19;35.90;99556.09;5006834;28;20478;-81
2022/08/10 05:38:54;;;;;;;1.10;1.05;;;;;;;28.19;36.14;99566.94;5005342;28;20065;-81
2022/08/10 05:41:20;;;;;;;4.10;2.92;;;;;;;28.26;36.76;99575.34;5005832;28;20137;-81
2022/08/10 05:43:46;;;;;;;1.17;1.00;;;;;;;28.21;36.00;99548.66;5001022;28;20034;-81
2022/08/10 05:46:12;;;;;;;0.88;0.80;;;;;;;28.33;36.42;99586.50;4992349;28;20119;-80
2022/08/10 05:48:40;;;;;;;0.60;0.60;;;;;;;28.28;35.94;99570.63;4998389;28;20034;-80
2022/08/10 05:51:06;;;;;;;1.40;1.27;;;;;;;28.42;35.41;99568.53;4988842;28;20564;-80
2022/08/10 05:53:33;;;;;;;1.10;1.00;;;;;;;28.62;34.84;99577.56;4990385;28;20616;-80
2022/08/10 05:56:00;;;;;;;3.10;1.35;;;;;;;28.75;35.04;99578.16;4998042;28;20512;-80
2022/08/10 05:58:26;;;;;;;1.77;1.67;;;;;;;29.11;36.08;99576.53;5000978;28;20099;-81
2022/08/10 06:00:54;;;;;;;1.38;0.93;;;;;;;29.00;34.14;99573.16;4991134;28;20038;-81
2022/08/10 06:03:26;;;;;;;1.45;1.30;;;;;;;29.15;34.68;99582.56;5010702;28;20053;-81
2022/08/10 06:05:54;;;;;;;1.15;0.98;;;;;;;28.89;33.91;99568.72;5009048;28;20431;-81
2022/08/10 06:08:23;;;;;;;1.33;0.88;;;;;;;28.84;35.13;99557.41;5006138;28;20042;-81
2022/08/10 06:10:52;;;;;;;13.23;1.88;;;;;;;28.83;34.00;99555.72;5006602;28;20489;-80
2022/08/10 06:16:11;;;;;;;0.95;0.82;;;;;;;28.98;34.37;99570.56;5009935;28;20519;-81
2022/08/10 06:18:36;;;;;;;1.20;0.93;;;;;;;29.42;34.31;99589.94;5000838;28;20042;-81
2022/08/10 06:21:03;;;;;;;28.83;1.63;;;;;;;29.45;34.03;99558.91;4989580;28;20037;-81
2022/08/10 06:23:30;;;;;;;1.33;0.88;;;;;;;29.53;33.74;99590.78;4991460;28;20528;-81
2022/08/10 06:25:57;;;;;;;0.57;0.52;;;;;;;29.28;32.97;99558.66;4994167;28;20065;-83
2022/08/10 06:28:24;;;;;;;2.30;1.58;;;;;;;29.30;33.92;99547.66;4992922;28;20049;-81
2022/08/10 06:30:52;;;;;;;3.58;1.83;;;;;;;29.43;33.33;99550.91;4999788;28;20053;-82
2022/08/10 06:33:21;;;;;;;0.85;0.70;;;;;;;29.90;33.50;99576.38;4991279;28;20497;-82
2022/08/10 06:35:52;;;;;;;2.35;1.45;;;;;;;30.11;32.97;99557.94;4990215;28;20030;-82
2022/08/10 06:38:20;;;;;;;0.77;0.65;;;;;;;30.15;32.61;99553.03;5000917;28;20091;-83
2022/08/10 06:40:47;;;;;;;1.92;1.65;;;;;;;30.08;32.53;99547.38;5009860;28;20034;-85
2022/08/10 06:43:17;;;;;;;0.65;0.57;;;;;;;30.43;32.67;99553.03;4993737;28;20181;-82
2022/08/10 06:45:48;;;;;;;0.70;0.50;;;;;;;30.45;33.34;99592.69;4989996;28;20165;-82
2022/08/10 06:48:28;;;;;;;3.90;1.33;;;;;;;30.69;31.97;99545.81;4990340;28;20027;-82
2022/08/10 06:51:14;;;;;;;1.85;1.02;;;;;;;30.98;31.28;99574.66;4990025;28;20096;-84
2022/08/10 06:53:46;;;;;;;1.30;1.20;;;;;;;31.06;31.61;99565.69;4988765;28;20041;-82
2022/08/10 06:56:15;;;;;;;2.05;1.85;;;;;;;31.78;30.28;99574.53;4989617;28;20172;-83
2022/08/10 06:59:07;;;;;;;3.63;1.45;;;;;;;32.10;30.46;99591.22;4989724;28;20042;-82
2022/08/10 07:01:35;;;;;;;1.38;1.05;;;;;;;32.33;28.78;99580.53;4990073;28;20043;-84
2022/08/10 07:04:17;;;;;;;1.42;1.00;;;;;;;32.04;28.54;99611.81;4989127;28;20141;-83
2022/08/10 07:06:45;;;;;;;2.45;1.73;;;;;;;32.13;29.02;99599.06;4989633;28;20034;-83
2022/08/10 07:09:13;;;;;;;4.90;1.50;;;;;;;32.10;28.74;99591.22;4989528;28;20121;-82
2022/08/10 07:11:42;;;;;;;1.65;1.30;;;;;;;32.59;28.95;99583.16;4989847;28;20030;-82
2022/08/10 07:14:11;;;;;;;2.22;1.75;;;;;;;32.74;28.02;99604.38;4989617;28;20027;-80
2022/08/10 07:16:39;;;;;;;1.77;1.42;;;;;;;32.59;28.27;99583.16;4989087;28;20095;-82
2022/08/10 07:19:07;;;;;;;1.88;1.25;;;;;;;32.49;28.79;99586.06;4989680;28;20031;-82
2022/08/10 07:21:34;;;;;;;1.13;0.95;;;;;;;32.65;27.98;99609.81;4988914;28;20035;-82
2022/08/10 07:24:00;;;;;;;1.67;1.27;;;;;;;32.90;28.69;99595.34;4989512;28;20057;-81
2022/08/10 07:26:29;;;;;;;2.53;1.67;;;;;;;33.21;27.22;99598.25;4989425;28;20030;-82
2022/08/10 07:28:55;;;;;;;3.72;2.45;;;;;;;33.29;26.77;99611.94;4988886;28;20552;-81
2022/08/10 07:31:21;;;;;;;4.72;4.25;;;;;;;33.89;26.54;99583.28;4989078;28;20033;-82
2022/08/10 07:33:54;;;;;;;2.35;1.33;;;;;;;34.01;26.86;99593.84;4989342;28;20034;-82
2022/08/10 07:36:22;;;;;;;1.10;1.00;;;;;;;34.10;25.82;99603.72;4989191;28;20487;-82
2022/08/10 07:38:52;;;;;;;15.60;2.00;;;;;;;34.74;25.69;99617.25;4988957;28;20041;-82
2022/08/10 07:41:20;;;;;;;1.10;0.90;;;;;;;34.96;25.08;99612.84;4988972;28;20033;-80
2022/08/10 07:43:48;;;;;;;4.55;2.00;;;;;;;34.78;24.63;99568.47;4988965;28;20041;-82
2022/08/10 07:46:15;;;;;;;2.15;1.95;;;;;;;35.40;24.93;99592.06;4987731;28;20042;-83
2022/08/10 07:48:45;;;;;;;6.55;1.73;;;;;;;35.14;25.25;99600.69;4988768;28;20117;-82
2022/08/10 07:51:12;;;;;;;2.20;1.63;;;;;;;35.43;26.27;99597.19;4987665;28;20031;-82
2022/08/10 07:53:43;;;;;;;1.88;1.45;;;;;;;35.78;24.37;99605.75;4988689;28;20061;-82
2022/08/10 07:56:11;;;;;;;2.38;1.05;;;;;;;35.67;24.46;99585.13;4988765;28;20100;-82
2022/08/10 07:58:49;;;;;;;2.22;1.52;;;;;;;36.03;23.69;99591.75;4988493;28;20042;-83
2022/08/10 08:01:16;;;;;;;0.85;0.80;;;;;;;35.40;23.94;99596.72;4988762;28;20093;-81
2022/08/10 08:03:44;;;;;;;2.25;1.15;;;;;;;35.40;24.56;99583.00;4988502;28;20073;-82
2022/08/10 08:06:12;;;;;;;0.88;0.57;;;;;;;35.56;23.76;99599.31;4988110;28;20049;-82
2022/08/10 08:08:41;;;;;;;1.33;1.17;;;;;;;35.37;24.34;99595.19;4988109;28;20026;-82
2022/08/10 08:11:07;;;;;;;2.63;1.27;;;;;;;35.41;23.90;99581.97;4988254;28;20524;-83
2022/08/10 08:13:34;;;;;;;0.90;0.73;;;;;;;35.30;23.80;99586.03;4988517;28;20528;-81
2022/08/10 08:16:03;;;;;;;0.60;0.50;;;;;;;35.68;24.06;99591.44;4988408;28;20070;-83
2022/08/10 08:18:31;;;;;;;0.70;0.70;;;;;;;35.68;24.02;99583.22;4987977;28;20504;-82
2022/08/10 08:20:57;;;;;;;0.50;0.50;;;;;;;35.89;25.07;99598.94;4988160;28;20076;-83
2022/08/10 08:23:26;;;;;;;3.05;2.58;;;;;;;35.80;23.84;99587.22;4988160;28;20038;-82
2022/08/10 08:25:52;;;;;;;7.22;1.70;;;;;;;35.24;24.25;99567.56;4987856;28;20049;-82
2022/08/10 08:28:19;;;;;;;1.98;1.30;;;;;;;35.19;25.70;99581.81;4988372;28;20034;-82
2022/08/10 08:30:46;;;;;;;1.02;0.85;;;;;;;35.63;24.15;99583.78;4988392;28;20064;-82
2022/08/10 08:33:14;;;;;;;1.00;0.98;;;;;;;34.30;26.75;99585.00;4986481;28;20483;-83
2022/08/10 08:35:42;;;;;;;1.85;1.45;;;;;;;34.51;27.46;99556.13;4988274;28;20113;-82
2022/08/10 08:38:09;;;;;;;0.45;0.38;;;;;;;35.13;25.37;99569.69;4987807;28;20125;-82
2022/08/10 08:40:36;;;;;;;1.67;0.95;;;;;;;35.27;24.33;99554.34;4988156;28;20038;-82
2022/08/10 08:43:11;;;;;;;1.08;0.98;;;;;;;35.45;24.15;99586.91;4988244;28;20030;-84
2022/08/10 08:45:58;;;;;;;8.75;1.20;;;;;;;35.46;24.66;99583.09;4987761;28;20833;-83
2022/08/10 08:48:39;;;;;;;0.52;0.52;;;;;;;35.60;24.09;99577.81;4987583;28;20049;-81
2022/08/10 08:51:10;;;;;;;0.65;0.60;;;;;;;35.92;24.14;99573.03;4987743;28;20140;-82
2022/08/10 08:53:54;;;;;;;1.80;0.82;;;;;;;36.09;23.86;99569.03;4987904;28;20140;-82
2022/08/10 08:56:57;;;;;;;2.42;1.55;;;;;;;36.28;24.01;99566.75;4987772;28;20049;-81
2022/08/10 09:00:16;;;;;;;0.75;0.75;;;;;;;36.29;23.86;99561.06;4987796;28;20100;-81
2022/08/10 09:03:35;;;;;;;2.83;1.52;;;;;;;36.32;23.63;99570.81;4949719;28;20044;-84
2022/08/10 09:06:00;;;;;;;4.55;1.70;;;;;;;36.39;23.44;99566.22;5004713;28;20038;-82
2022/08/10 09:08:44;;;;;;;2.50;1.05;;;;;;;36.43;23.26;99567.56;4990703;28;20058;-82
2022/08/10 09:11:50;;;;;;;1.23;0.93;;;;;;;35.72;23.07;99568.09;4994562;28;20050;-82
2022/08/10 09:14:33;;;;;;;1.90;0.95;;;;;;;35.87;22.56;99548.03;4986948;28;20587;-81
2022/08/10 09:17:23;;;;;;;1.07;0.97;;;;;;;36.01;22.46;99556.25;4989073;28;20030;-80
2022/08/10 09:20:06;;;;;;;1.42;1.02;;;;;;;36.28;23.18;99558.50;4991839;28;20284;-81
2022/08/10 09:22:50;;;;;;;1.38;1.15;;;;;;;36.07;22.41;99557.41;4995295;28;20121;-81
2022/08/10 09:25:23;;;;;;;0.73;0.73;;;;;;;35.77;24.97;99534.63;5009840;28;20030;-81
2022/08/10 09:28:02;;;;;;;1.88;1.23;;;;;;;35.76;25.48;99555.72;5009575;28;20516;-81
2022/08/10 09:30:31;;;;;;;1.13;1.05;;;;;;;35.13;24.38;99500.34;4989866;28;20042;-81
2022/08/10 09:33:11;;;;;;;5.20;1.33;;;;;;;35.28;24.64;99536.88;4993211;28;20401;-82
2022/08/10 09:36:01;;;;;;;1.63;1.27;;;;;;;35.59;23.84;99545.94;4990059;28;20038;-81
2022/08/10 09:38:50;;;;;;;1.08;0.93;;;;;;;35.70;24.30;99529.03;4993081;28;20204;-81
2022/08/10 09:41:34;;;;;;;2.65;1.40;;;;;;;35.45;24.48;99554.00;5009929;28;20052;-81
2022/08/10 09:44:12;;;;;;;2.97;1.67;;;;;;;35.79;23.37;99538.91;5008044;28;20084;-81
2022/08/10 09:47:04;;;;;;;2.33;1.65;;;;;;;36.07;24.04;99546.41;5009596;28;20812;-80
2022/08/10 09:49:58;;;;;;;1.33;1.23;;;;;;;35.58;25.38;99544.25;5009441;28;20034;-81
2022/08/10 09:52:51;;;;;;;0.88;0.70;;;;;;;35.48;26.24;99537.16;5010225;28;20026;-80
2022/08/10 09:55:27;;;;;;;0.73;0.55;;;;;;;35.62;23.40;99535.47;5000136;28;20476;-81
2022/08/10 09:58:10;;;;;;;2.90;1.20;;;;;;;35.77;25.23;99532.72;4990381;28;20034;-81
2022/08/10 10:00:43;;;;;;;1.02;0.93;;;;;;;35.77;23.49;99532.72;4990737;28;20038;-81
2022/08/10 10:03:43;;;;;;;1.38;1.27;;;;;;;36.11;24.59;99523.00;4991189;28;20525;-81
2022/08/10 10:06:19;;;;;;;2.47;1.52;;;;;;;35.85;25.95;99510.69;4990509;28;20034;-81
2022/08/10 10:08:57;;;;;;;1.48;1.20;;;;;;;35.92;27.60;99507.19;4991014;28;20026;-81
2022/08/10 10:11:41;;;;;;;0.65;0.65;;;;;;;36.22;23.72;99496.94;4990795;28;20582;-81
2022/08/10 10:14:32;;;;;;;0.65;0.65;;;;;;;36.45;25.20;99529.75;4990925;28;20513;-82
2022/08/10 10:17:19;;;;;;;1.20;1.10;;;;;;;36.13;24.34;99529.19;4990232;28;20030;-81
2022/08/10 10:20:27;;;;;;;14.30;1.23;;;;;;;36.37;23.63;99525.22;4990188;28;20066;-80
2022/08/10 10:23:06;;;;;;;1.08;0.75;;;;;;;36.06;24.25;99524.66;4986876;28;20104;-80
2022/08/10 10:25:40;;;;;;;1.50;1.13;;;;;;;35.50;25.56;99499.44;4989990;28;20042;-81
2022/08/10 10:28:24;;;;;;;0.85;0.82;;;;;;;35.76;25.08;99520.06;4990403;28;20026;-81
2022/08/10 10:30:55;;;;;;;;;;;;;;;35.51;25.36;99513.97;4990407;28;20173;-80
2022/08/10 10:33:46;;;;;;;2.63;1.25;;;;;;;35.21;24.90;99504.88;4990158;28;20454;-81
2022/08/10 10:36:14;;;;;;;3.78;1.70;;;;;;;34.59;26.04;99493.09;4990430;28;20097;-80
2022/08/10 10:38:42;;;;;;;1.80;1.10;;;;;;;34.95;25.35;99492.47;4990061;28;20096;-80
2022/08/10 10:41:12;;;;;;;2.85;1.17;;;;;;;34.61;26.49;99501.97;4990292;28;20035;-80
2022/08/10 10:44:10;;;;;;;3.20;2.30;;;;;;;34.48;26.74;99485.31;4990388;28;20042;-80
2022/08/10 10:46:54;;;;;;;0.85;0.85;;;;;;;34.56;25.73;99468.81;4990196;28;20535;-80
2022/08/10 10:49:50;;;;;;;0.85;0.80;;;;;;;34.54;26.23;99476.34;4990251;28;20041;-81
2022/08/10 10:52:53;;;;;;;0.75;0.70;;;;;;;33.90;26.91;99500.19;4988484;28;20030;-80
2022/08/10 10:55:44;;;;;;;0.88;0.43;;;;;;;33.80;27.77;99490.50;4988385;28;20774;-82
2022/08/10 10:58:21;;;;;;;1.00;0.70;;;;;;;33.90;27.94;99494.72;5008389;28;20046;-80
2022/08/10 11:01:05;;;;;;;1.00;0.90;;;;;;;34.00;27.36;99469.00;5009287;28;20034;-80
2022/08/10 11:03:43;;;;;;;1.25;1.15;;;;;;;34.50;27.21;99480.50;5009035;28;20029;-81
2022/08/10 11:06:17;;;;;;;2.53;1.52;;;;;;;34.11;28.77;99489.63;5008980;28;20043;-81
2022/08/10 11:08:54;;;;;;;0.77;0.50;;;;;;;33.97;29.23;99464.78;5009257;28;20057;-80
2022/08/10 11:11:30;;;;;;;0.63;0.57;;;;;;;33.72;28.55;99440.28;5009011;28;20099;-80
2022/08/10 11:14:18;;;;;;;2.03;1.17;;;;;;;34.00;28.16;99461.69;5008970;28;20100;-82
2022/08/10 11:16:52;;;;;;;1.98;1.05;;;;;;;34.42;29.01;99462.28;5009125;28;20034;-82
2022/08/10 11:19:35;;;;;;;0.68;0.65;;;;;;;33.76;28.60;99497.38;5000328;28;20104;-81
2022/08/10 11:22:12;;;;;;;3.95;2.40;;;;;;;31.71;31.23;99539.91;5004174;28;20042;-82
2022/08/10 11:24:45;;;;;;;14.77;4.40;;;;;;;29.53;35.46;99533.72;5008628;28;20504;-83
2022/08/10 11:27:18;;;;;;;1.17;0.73;;;;;;;28.86;37.25;99540.00;5008994;28;20034;-84
2022/08/10 11:29:49;;;;;;;15.70;3.13;;;;;;;28.27;37.58;99540.94;5008477;28;20038;-84
2022/08/10 11:32:46;;;;;;;18.67;1.35;;;;;;;27.21;37.93;99506.03;5008813;28;20038;-84
2022/08/10 11:35:37;;;;;;;1.83;0.82;;;;;;;26.78;39.02;99544.91;5009072;28;20034;-88
2022/08/10 11:38:14;;;;;;;2.28;1.25;;;;;;;26.90;38.26;99553.84;5009030;28;20069;-84
2022/08/10 11:41:06;;;;;;;1.08;0.90;;;;;;;27.14;38.49;99542.72;5008482;28;20025;-84
2022/08/10 11:43:36;;;;;;;1.80;1.70;;;;;;;26.99;38.19;99528.69;5008394;28;20038;-82
2022/08/10 11:46:13;;;;;;;1.08;0.90;;;;;;;27.10;37.77;99535.88;5008343;28;20524;-83
2022/08/10 11:48:46;;;;;;;1.10;1.00;;;;;;;27.32;37.46;99521.34;5008728;28;20034;-83
2022/08/10 11:51:29;;;;;;;0.57;0.57;;;;;;;27.38;37.78;99501.88;5008542;28;20108;-82
2022/08/10 11:54:06;;;;;;;4.28;1.50;;;;;;;27.73;38.15;99534.94;5008289;28;20026;-85
2022/08/10 11:56:45;;;;;;;1.85;1.65;;;;;;;27.80;37.76;99526.09;5007067;28;20904;-83
2022/08/10 12:01:58;;;;;;;2.05;1.42;;;;;;;28.05;36.12;99507.66;5008303;28;20076;-82
2022/08/10 12:04:27;;;;;;;0.77;0.75;;;;;;;28.27;36.12;99512.00;5008311;28;20034;-85
2022/08/10 12:06:53;;;;;;;0.95;0.70;;;;;;;28.78;34.56;99517.28;5007935;28;20092;-83